sensor_id;sensor_type;location;lat;lon;timestamp;P1;durP1;ratioP1;P2;durP2;ratioP2
146;SDS011;45999;48.808;9.182;2023-12-20T00:01:50;1.73;;;1.00;;
146;SDS011;45999;48.808;9.182;2023-12-20T00:04:17;1.20;;;1.10;;
146;SDS011;45999;48.808;9.182;2023-12-20T00:06:43;1.50;;;1.00;;
146;SDS011;45999;48.808;9.182;2023-12-20T00:09:09;1.00;;;0.90;;
146;SDS011;45999;48.808;9.182;2023-12-20T00:11:36;0.80;;;0.80;;
146;SDS011;45999;48.808;9.182;2023-12-20T00:14:02;1.10;;;1.03;;
146;SDS011;45999;48.808;9.182;2023-12-20T00:16:28;1.20;;;1.10;;
146;SDS011;45999;48.808;9.182;2023-12-20T00:18:56;1.30;;;1.20;;
146;SDS011;45999;48.808;9.182;2023-12-20T00:21:23;1.67;;;1.20;;
146;SDS011;45999;48.808;9.182;2023-12-20T00:23:49;0.80;;;0.80;;
146;SDS011;45999;48.808;9.182;2023-12-20T00:26:15;0.77;;;0.77;;
146;SDS011;45999;48.808;9.182;2023-12-20T00:28:42;1.27;;;0.80;;
146;SDS011;45999;48.808;9.182;2023-12-20T00:31:08;0.80;;;0.80;;
146;SDS011;45999;48.808;9.182;2023-12-20T00:33:35;1.50;;;1.10;;
146;SDS011;45999;48.808;9.182;2023-12-20T00:36:01;0.90;;;0.90;;
146;SDS011;45999;48.808;9.182;2023-12-20T00:38:27;2.07;;;1.00;;
146;SDS011;45999;48.808;9.182;2023-12-20T00:40:54;0.80;;;0.80;;
146;SDS011;45999;48.808;9.182;2023-12-20T00:43:21;2.03;;;1.10;;
146;SDS011;45999;48.808;9.182;2023-12-20T00:45:47;1.53;;;0.90;;
146;SDS011;45999;48.808;9.182;2023-12-20T00:48:13;1.20;;;1.03;;
146;SDS011;45999;48.808;9.182;2023-12-20T00:50:40;1.63;;;0.97;;
146;SDS011;45999;48.808;9.182;2023-12-20T00:53:06;1.17;;;1.07;;
146;SDS011;45999;48.808;9.182;2023-12-20T00:55:33;1.10;;;1.00;;
146;SDS011;45999;48.808;9.182;2023-12-20T00:58:02;1.37;;;1.27;;
146;SDS011;45999;48.808;9.182;2023-12-20T01:00:28;0.80;;;0.80;;
146;SDS011;45999;48.808;9.182;2023-12-20T01:02:54;0.90;;;0.90;;
146;SDS011;45999;48.808;9.182;2023-12-20T01:05:21;2.00;;;1.00;;
146;SDS011;45999;48.808;9.182;2023-12-20T01:07:48;1.10;;;1.00;;
146;SDS011;45999;48.808;9.182;2023-12-20T01:10:15;1.30;;;0.90;;
146;SDS011;45999;48.808;9.182;2023-12-20T01:12:42;1.73;;;1.20;;
146;SDS011;45999;48.808;9.182;2023-12-20T01:15:09;1.33;;;1.20;;
146;SDS011;45999;48.808;9.182;2023-12-20T01:17:36;1.20;;;1.00;;
146;SDS011;45999;48.808;9.182;2023-12-20T01:20:02;2.77;;;1.10;;
146;SDS011;45999;48.808;9.182;2023-12-20T01:22:29;2.17;;;1.10;;
146;SDS011;45999;48.808;9.182;2023-12-20T01:24:56;2.60;;;1.27;;
146;SDS011;45999;48.808;9.182;2023-12-20T01:27:22;1.47;;;1.20;;
146;SDS011;45999;48.808;9.182;2023-12-20T01:29:49;1.47;;;1.10;;
146;SDS011;45999;48.808;9.182;2023-12-20T01:32:15;1.00;;;1.00;;
146;SDS011;45999;48.808;9.182;2023-12-20T01:34:41;1.10;;;1.00;;
146;SDS011;45999;48.808;9.182;2023-12-20T01:37:08;1.30;;;1.10;;
146;SDS011;45999;48.808;9.182;2023-12-20T01:39:34;1.97;;;1.10;;
146;SDS011;45999;48.808;9.182;2023-12-20T01:42:00;1.00;;;1.00;;
146;SDS011;45999;48.808;9.182;2023-12-20T01:44:27;1.53;;;1.20;;
146;SDS011;45999;48.808;9.182;2023-12-20T01:46:53;2.00;;;1.20;;
146;SDS011;45999;48.808;9.182;2023-12-20T01:49:20;0.90;;;0.90;;
146;SDS011;45999;48.808;9.182;2023-12-20T01:51:47;1.70;;;1.10;;
146;SDS011;45999;48.808;9.182;2023-12-20T01:54:14;1.27;;;1.17;;
146;SDS011;45999;48.808;9.182;2023-12-20T01:56:41;1.53;;;1.00;;
146;SDS011;45999;48.808;9.182;2023-12-20T01:59:08;1.20;;;1.10;;
146;SDS011;45999;48.808;9.182;2023-12-20T02:01:35;1.40;;;1.30;;
146;SDS011;45999;48.808;9.182;2023-12-20T02:04:01;1.37;;;1.07;;
146;SDS011;45999;48.808;9.182;2023-12-20T02:06:29;1.43;;;1.07;;
146;SDS011;45999;48.808;9.182;2023-12-20T02:08:57;3.43;;;1.40;;
146;SDS011;45999;48.808;9.182;2023-12-20T02:11:24;2.27;;;1.10;;
146;SDS011;45999;48.808;9.182;2023-12-20T02:13:51;1.10;;;1.10;;
146;SDS011;45999;48.808;9.182;2023-12-20T02:16:17;2.03;;;1.10;;
146;SDS011;45999;48.808;9.182;2023-12-20T02:18:44;1.23;;;1.13;;
146;SDS011;45999;48.808;9.182;2023-12-20T02:21:10;1.40;;;1.30;;
146;SDS011;45999;48.808;9.182;2023-12-20T02:23:37;1.33;;;1.10;;
146;SDS011;45999;48.808;9.182;2023-12-20T02:26:03;1.50;;;1.40;;
146;SDS011;45999;48.808;9.182;2023-12-20T02:28:31;1.70;;;1.40;;
146;SDS011;45999;48.808;9.182;2023-12-20T02:30:58;1.47;;;1.30;;
146;SDS011;45999;48.808;9.182;2023-12-20T02:33:24;1.40;;;1.30;;
146;SDS011;45999;48.808;9.182;2023-12-20T02:35:50;1.40;;;1.30;;
146;SDS011;45999;48.808;9.182;2023-12-20T02:38:17;1.40;;;1.30;;
146;SDS011;45999;48.808;9.182;2023-12-20T02:40:44;1.77;;;1.60;;
146;SDS011;45999;48.808;9.182;2023-12-20T02:43:10;1.63;;;1.30;;
146;SDS011;45999;48.808;9.182;2023-12-20T02:45:36;1.60;;;1.50;;
146;SDS011;45999;48.808;9.182;2023-12-20T02:48:03;1.60;;;1.50;;
146;SDS011;45999;48.808;9.182;2023-12-20T02:50:29;1.73;;;1.60;;
146;SDS011;45999;48.808;9.182;2023-12-20T02:52:56;2.30;;;1.53;;
146;SDS011;45999;48.808;9.182;2023-12-20T02:55:22;2.73;;;1.90;;
146;SDS011;45999;48.808;9.182;2023-12-20T02:57:48;2.17;;;1.80;;
146;SDS011;45999;48.808;9.182;2023-12-20T03:00:15;2.30;;;2.10;;
146;SDS011;45999;48.808;9.182;2023-12-20T03:02:41;2.57;;;2.00;;
146;SDS011;45999;48.808;9.182;2023-12-20T03:05:07;1.80;;;1.70;;
146;SDS011;45999;48.808;9.182;2023-12-20T03:07:36;3.07;;;1.70;;
146;SDS011;45999;48.808;9.182;2023-12-20T03:10:03;1.60;;;1.50;;
146;SDS011;45999;48.808;9.182;2023-12-20T03:12:30;1.60;;;1.50;;
146;SDS011;45999;48.808;9.182;2023-12-20T03:14:56;1.53;;;1.40;;
146;SDS011;45999;48.808;9.182;2023-12-20T03:17:22;1.57;;;1.37;;
146;SDS011;45999;48.808;9.182;2023-12-20T03:19:49;2.10;;;1.53;;
146;SDS011;45999;48.808;9.182;2023-12-20T03:22:15;1.30;;;1.20;;
146;SDS011;45999;48.808;9.182;2023-12-20T03:24:41;1.13;;;0.90;;
146;SDS011;45999;48.808;9.182;2023-12-20T03:27:08;1.33;;;0.80;;
146;SDS011;45999;48.808;9.182;2023-12-20T03:29:34;0.80;;;0.70;;
146;SDS011;45999;48.808;9.182;2023-12-20T03:32:00;1.67;;;0.80;;
146;SDS011;45999;48.808;9.182;2023-12-20T03:34:27;0.50;;;0.50;;
146;SDS011;45999;48.808;9.182;2023-12-20T03:36:54;0.90;;;0.70;;
146;SDS011;45999;48.808;9.182;2023-12-20T03:39:20;1.13;;;0.40;;
146;SDS011;45999;48.808;9.182;2023-12-20T03:41:46;0.87;;;0.40;;
146;SDS011;45999;48.808;9.182;2023-12-20T03:44:13;0.40;;;0.40;;
146;SDS011;45999;48.808;9.182;2023-12-20T03:46:39;0.33;;;0.33;;
146;SDS011;45999;48.808;9.182;2023-12-20T03:49:05;0.77;;;0.37;;
146;SDS011;45999;48.808;9.182;2023-12-20T03:51:32;0.40;;;0.40;;
146;SDS011;45999;48.808;9.182;2023-12-20T03:53:58;0.30;;;0.30;;
146;SDS011;45999;48.808;9.182;2023-12-20T03:56:24;0.30;;;0.30;;
146;SDS011;45999;48.808;9.182;2023-12-20T03:58:51;0.27;;;0.27;;
146;SDS011;45999;48.808;9.182;2023-12-20T04:01:17;0.40;;;0.20;;
146;SDS011;45999;48.808;9.182;2023-12-20T04:03:43;0.30;;;0.30;;
146;SDS011;45999;48.808;9.182;2023-12-20T04:06:10;0.20;;;0.20;;
146;SDS011;45999;48.808;9.182;2023-12-20T04:08:36;0.20;;;0.20;;
146;SDS011;45999;48.808;9.182;2023-12-20T04:11:02;0.20;;;0.20;;
146;SDS011;45999;48.808;9.182;2023-12-20T04:13:29;0.20;;;0.20;;
146;SDS011;45999;48.808;9.182;2023-12-20T04:15:55;0.23;;;0.23;;
146;SDS011;45999;48.808;9.182;2023-12-20T04:18:21;0.20;;;0.20;;
146;SDS011;45999;48.808;9.182;2023-12-20T04:20:48;0.20;;;0.20;;
146;SDS011;45999;48.808;9.182;2023-12-20T04:23:14;0.30;;;0.30;;
146;SDS011;45999;48.808;9.182;2023-12-20T04:25:41;0.30;;;0.30;;
146;SDS011;45999;48.808;9.182;2023-12-20T04:28:07;0.20;;;0.20;;
146;SDS011;45999;48.808;9.182;2023-12-20T04:30:33;0.20;;;0.20;;
146;SDS011;45999;48.808;9.182;2023-12-20T04:33:00;1.33;;;0.30;;
146;SDS011;45999;48.808;9.182;2023-12-20T04:35:27;0.30;;;0.20;;
146;SDS011;45999;48.808;9.182;2023-12-20T04:37:53;0.60;;;0.33;;
146;SDS011;45999;48.808;9.182;2023-12-20T04:40:20;0.50;;;0.40;;
146;SDS011;45999;48.808;9.182;2023-12-20T04:42:46;0.20;;;0.20;;
146;SDS011;45999;48.808;9.182;2023-12-20T04:45:12;0.20;;;0.20;;
146;SDS011;45999;48.808;9.182;2023-12-20T04:47:41;0.27;;;0.27;;
146;SDS011;45999;48.808;9.182;2023-12-20T04:50:08;0.33;;;0.30;;
146;SDS011;45999;48.808;9.182;2023-12-20T04:52:36;1.50;;;0.30;;
146;SDS011;45999;48.808;9.182;2023-12-20T04:55:02;0.20;;;0.20;;
146;SDS011;45999;48.808;9.182;2023-12-20T04:57:29;0.20;;;0.20;;
146;SDS011;45999;48.808;9.182;2023-12-20T04:59:55;0.30;;;0.30;;
146;SDS011;45999;48.808;9.182;2023-12-20T05:02:21;0.20;;;0.20;;
146;SDS011;45999;48.808;9.182;2023-12-20T05:04:48;2.10;;;0.27;;
146;SDS011;45999;48.808;9.182;2023-12-20T05:07:14;0.23;;;0.23;;
146;SDS011;45999;48.808;9.182;2023-12-20T05:09:41;0.30;;;0.30;;
146;SDS011;45999;48.808;9.182;2023-12-20T05:12:07;0.20;;;0.20;;
146;SDS011;45999;48.808;9.182;2023-12-20T05:14:34;0.20;;;0.20;;
146;SDS011;45999;48.808;9.182;2023-12-20T05:17:00;0.43;;;0.30;;
146;SDS011;45999;48.808;9.182;2023-12-20T05:19:28;0.30;;;0.30;;
146;SDS011;45999;48.808;9.182;2023-12-20T05:21:54;0.40;;;0.40;;
146;SDS011;45999;48.808;9.182;2023-12-20T05:24:21;0.30;;;0.30;;
146;SDS011;45999;48.808;9.182;2023-12-20T05:26:47;0.20;;;0.20;;
146;SDS011;45999;48.808;9.182;2023-12-20T05:29:13;0.80;;;0.30;;
146;SDS011;45999;48.808;9.182;2023-12-20T05:31:39;0.30;;;0.30;;
146;SDS011;45999;48.808;9.182;2023-12-20T05:34:06;1.03;;;0.40;;
146;SDS011;45999;48.808;9.182;2023-12-20T05:36:33;0.30;;;0.30;;
146;SDS011;45999;48.808;9.182;2023-12-20T05:38:59;0.30;;;0.30;;
146;SDS011;45999;48.808;9.182;2023-12-20T05:41:25;0.60;;;0.60;;
146;SDS011;45999;48.808;9.182;2023-12-20T05:43:52;0.77;;;0.40;;
146;SDS011;45999;48.808;9.182;2023-12-20T05:46:18;0.50;;;0.50;;
146;SDS011;45999;48.808;9.182;2023-12-20T05:48:46;0.57;;;0.50;;
146;SDS011;45999;48.808;9.182;2023-12-20T05:51:13;0.40;;;0.40;;
146;SDS011;45999;48.808;9.182;2023-12-20T05:53:40;0.50;;;0.50;;
146;SDS011;45999;48.808;9.182;2023-12-20T05:56:06;1.57;;;0.60;;
146;SDS011;45999;48.808;9.182;2023-12-20T05:58:33;0.50;;;0.50;;
146;SDS011;45999;48.808;9.182;2023-12-20T06:00:59;0.50;;;0.50;;
146;SDS011;45999;48.808;9.182;2023-12-20T06:03:25;1.07;;;0.53;;
146;SDS011;45999;48.808;9.182;2023-12-20T06:05:52;0.50;;;0.50;;
146;SDS011;45999;48.808;9.182;2023-12-20T06:08:18;0.70;;;0.70;;
146;SDS011;45999;48.808;9.182;2023-12-20T06:10:44;0.80;;;0.80;;
146;SDS011;45999;48.808;9.182;2023-12-20T06:13:11;0.57;;;0.57;;
146;SDS011;45999;48.808;9.182;2023-12-20T06:15:38;0.97;;;0.70;;
146;SDS011;45999;48.808;9.182;2023-12-20T06:18:05;0.50;;;0.50;;
146;SDS011;45999;48.808;9.182;2023-12-20T06:20:32;0.90;;;0.80;;
146;SDS011;45999;48.808;9.182;2023-12-20T06:22:59;0.63;;;0.63;;
146;SDS011;45999;48.808;9.182;2023-12-20T06:25:25;0.70;;;0.70;;
146;SDS011;45999;48.808;9.182;2023-12-20T06:27:51;0.60;;;0.60;;
146;SDS011;45999;48.808;9.182;2023-12-20T06:30:18;1.30;;;0.67;;
146;SDS011;45999;48.808;9.182;2023-12-20T06:32:44;0.60;;;0.60;;
146;SDS011;45999;48.808;9.182;2023-12-20T06:35:12;0.83;;;0.50;;
146;SDS011;45999;48.808;9.182;2023-12-20T06:37:38;0.70;;;0.70;;
146;SDS011;45999;48.808;9.182;2023-12-20T06:40:07;0.40;;;0.40;;
146;SDS011;45999;48.808;9.182;2023-12-20T06:42:34;0.70;;;0.70;;
146;SDS011;45999;48.808;9.182;2023-12-20T06:45:01;0.80;;;0.80;;
146;SDS011;45999;48.808;9.182;2023-12-20T06:47:27;1.10;;;0.90;;
146;SDS011;45999;48.808;9.182;2023-12-20T06:49:53;1.50;;;0.90;;
146;SDS011;45999;48.808;9.182;2023-12-20T06:52:20;1.40;;;1.00;;
146;SDS011;45999;48.808;9.182;2023-12-20T06:54:47;1.53;;;1.00;;
146;SDS011;45999;48.808;9.182;2023-12-20T06:57:13;1.00;;;0.90;;
146;SDS011;45999;48.808;9.182;2023-12-20T06:59:43;1.67;;;0.90;;
146;SDS011;45999;48.808;9.182;2023-12-20T07:02:09;1.07;;;0.77;;
146;SDS011;45999;48.808;9.182;2023-12-20T07:04:39;2.57;;;1.23;;
146;SDS011;45999;48.808;9.182;2023-12-20T07:07:08;2.40;;;1.00;;
146;SDS011;45999;48.808;9.182;2023-12-20T07:09:34;1.00;;;1.00;;
146;SDS011;45999;48.808;9.182;2023-12-20T07:12:01;1.77;;;1.20;;
146;SDS011;45999;48.808;9.182;2023-12-20T07:14:27;1.40;;;1.27;;
146;SDS011;45999;48.808;9.182;2023-12-20T07:16:54;1.77;;;1.60;;
146;SDS011;45999;48.808;9.182;2023-12-20T07:19:20;2.10;;;1.90;;
146;SDS011;45999;48.808;9.182;2023-12-20T07:21:47;2.20;;;2.10;;
146;SDS011;45999;48.808;9.182;2023-12-20T07:24:13;3.00;;;2.80;;
146;SDS011;45999;48.808;9.182;2023-12-20T07:26:39;3.47;;;2.30;;
146;SDS011;45999;48.808;9.182;2023-12-20T07:29:06;3.43;;;2.83;;
146;SDS011;45999;48.808;9.182;2023-12-20T07:31:32;2.80;;;2.60;;
146;SDS011;45999;48.808;9.182;2023-12-20T07:33:59;3.00;;;2.80;;
146;SDS011;45999;48.808;9.182;2023-12-20T07:36:26;2.57;;;2.37;;
146;SDS011;45999;48.808;9.182;2023-12-20T07:38:52;2.13;;;1.93;;
146;SDS011;45999;48.808;9.182;2023-12-20T07:41:19;2.10;;;2.00;;
146;SDS011;45999;48.808;9.182;2023-12-20T07:43:47;2.00;;;1.90;;
146;SDS011;45999;48.808;9.182;2023-12-20T07:46:13;2.40;;;2.20;;
146;SDS011;45999;48.808;9.182;2023-12-20T07:48:39;2.03;;;1.83;;
146;SDS011;45999;48.808;9.182;2023-12-20T07:51:06;2.10;;;2.00;;
146;SDS011;45999;48.808;9.182;2023-12-20T07:53:34;2.53;;;2.30;;
146;SDS011;45999;48.808;9.182;2023-12-20T07:56:01;2.00;;;1.90;;
146;SDS011;45999;48.808;9.182;2023-12-20T07:58:27;1.73;;;1.63;;
146;SDS011;45999;48.808;9.182;2023-12-20T08:00:55;2.33;;;2.20;;
146;SDS011;45999;48.808;9.182;2023-12-20T08:03:21;1.80;;;1.70;;
146;SDS011;45999;48.808;9.182;2023-12-20T08:05:47;3.77;;;2.00;;
146;SDS011;45999;48.808;9.182;2023-12-20T08:08:14;3.13;;;2.10;;
146;SDS011;45999;48.808;9.182;2023-12-20T08:10:40;1.70;;;1.60;;
146;SDS011;45999;48.808;9.182;2023-12-20T08:13:06;3.93;;;2.17;;
146;SDS011;45999;48.808;9.182;2023-12-20T08:15:33;2.73;;;2.53;;
146;SDS011;45999;48.808;9.182;2023-12-20T08:17:59;3.03;;;2.50;;
146;SDS011;45999;48.808;9.182;2023-12-20T08:20:26;4.20;;;2.47;;
146;SDS011;45999;48.808;9.182;2023-12-20T08:22:52;3.17;;;2.20;;
146;SDS011;45999;48.808;9.182;2023-12-20T08:25:19;2.90;;;2.63;;
146;SDS011;45999;48.808;9.182;2023-12-20T08:27:45;2.97;;;2.67;;
146;SDS011;45999;48.808;9.182;2023-12-20T08:30:11;3.93;;;2.83;;
146;SDS011;45999;48.808;9.182;2023-12-20T08:32:38;3.43;;;3.13;;
146;SDS011;45999;48.808;9.182;2023-12-20T08:35:04;3.57;;;2.67;;
146;SDS011;45999;48.808;9.182;2023-12-20T08:37:31;2.90;;;2.60;;
146;SDS011;45999;48.808;9.182;2023-12-20T08:39:57;3.43;;;2.47;;
146;SDS011;45999;48.808;9.182;2023-12-20T08:42:24;3.67;;;2.97;;
146;SDS011;45999;48.808;9.182;2023-12-20T08:44:55;4.37;;;2.60;;
146;SDS011;45999;48.808;9.182;2023-12-20T08:47:22;4.00;;;2.83;;
146;SDS011;45999;48.808;9.182;2023-12-20T08:49:48;4.87;;;2.87;;
146;SDS011;45999;48.808;9.182;2023-12-20T08:52:15;4.73;;;2.37;;
146;SDS011;45999;48.808;9.182;2023-12-20T08:54:41;4.07;;;2.50;;
146;SDS011;45999;48.808;9.182;2023-12-20T08:57:07;3.90;;;2.43;;
146;SDS011;45999;48.808;9.182;2023-12-20T08:59:34;4.30;;;2.33;;
146;SDS011;45999;48.808;9.182;2023-12-20T09:02:00;5.87;;;2.77;;
146;SDS011;45999;48.808;9.182;2023-12-20T09:04:27;5.77;;;2.80;;
146;SDS011;45999;48.808;9.182;2023-12-20T09:06:54;3.53;;;2.20;;
146;SDS011;45999;48.808;9.182;2023-12-20T09:09:20;1.90;;;1.80;;
146;SDS011;45999;48.808;9.182;2023-12-20T09:11:47;2.20;;;2.00;;
146;SDS011;45999;48.808;9.182;2023-12-20T09:14:15;2.53;;;2.33;;
146;SDS011;45999;48.808;9.182;2023-12-20T09:16:41;2.60;;;2.40;;
146;SDS011;45999;48.808;9.182;2023-12-20T09:19:07;2.90;;;2.10;;
146;SDS011;45999;48.808;9.182;2023-12-20T09:21:34;4.00;;;2.23;;
146;SDS011;45999;48.808;9.182;2023-12-20T09:24:00;2.63;;;2.00;;
146;SDS011;45999;48.808;9.182;2023-12-20T09:26:26;2.87;;;2.17;;
146;SDS011;45999;48.808;9.182;2023-12-20T09:28:53;2.83;;;2.13;;
146;SDS011;45999;48.808;9.182;2023-12-20T09:31:19;2.03;;;1.80;;
146;SDS011;45999;48.808;9.182;2023-12-20T09:33:46;2.73;;;2.00;;
146;SDS011;45999;48.808;9.182;2023-12-20T09:36:12;4.57;;;2.10;;
146;SDS011;45999;48.808;9.182;2023-12-20T09:38:39;3.63;;;1.70;;
146;SDS011;45999;48.808;9.182;2023-12-20T09:41:05;3.87;;;1.50;;
146;SDS011;45999;48.808;9.182;2023-12-20T09:43:32;3.20;;;1.53;;
146;SDS011;45999;48.808;9.182;2023-12-20T09:46:05;2.10;;;1.50;;
146;SDS011;45999;48.808;9.182;2023-12-20T09:48:32;2.90;;;1.53;;
146;SDS011;45999;48.808;9.182;2023-12-20T09:50:59;2.40;;;1.50;;
146;SDS011;45999;48.808;9.182;2023-12-20T09:53:25;4.83;;;1.40;;
146;SDS011;45999;48.808;9.182;2023-12-20T09:55:55;3.77;;;1.20;;
146;SDS011;45999;48.808;9.182;2023-12-20T09:58:25;2.00;;;1.10;;
146;SDS011;45999;48.808;9.182;2023-12-20T10:00:51;3.30;;;1.43;;
146;SDS011;45999;48.808;9.182;2023-12-20T10:03:22;4.40;;;1.20;;
146;SDS011;45999;48.808;9.182;2023-12-20T10:05:52;2.30;;;1.20;;
146;SDS011;45999;48.808;9.182;2023-12-20T10:08:22;2.10;;;1.40;;
146;SDS011;45999;48.808;9.182;2023-12-20T10:10:50;3.23;;;1.30;;
146;SDS011;45999;48.808;9.182;2023-12-20T10:13:16;5.93;;;1.13;;
146;SDS011;45999;48.808;9.182;2023-12-20T10:15:42;4.33;;;1.30;;
146;SDS011;45999;48.808;9.182;2023-12-20T10:18:09;3.10;;;1.47;;
146;SDS011;45999;48.808;9.182;2023-12-20T10:20:36;3.77;;;1.23;;
146;SDS011;45999;48.808;9.182;2023-12-20T10:23:03;7.40;;;1.47;;
146;SDS011;45999;48.808;9.182;2023-12-20T10:25:29;4.70;;;1.00;;
146;SDS011;45999;48.808;9.182;2023-12-20T10:28:15;5.00;;;1.00;;
146;SDS011;45999;48.808;9.182;2023-12-20T10:30:44;4.40;;;1.20;;
146;SDS011;45999;48.808;9.182;2023-12-20T10:33:11;7.73;;;1.60;;
146;SDS011;45999;48.808;9.182;2023-12-20T10:35:37;4.00;;;1.30;;
146;SDS011;45999;48.808;9.182;2023-12-20T10:38:05;5.40;;;1.23;;
146;SDS011;45999;48.808;9.182;2023-12-20T10:40:35;3.87;;;1.30;;
146;SDS011;45999;48.808;9.182;2023-12-20T10:43:03;6.73;;;1.70;;
146;SDS011;45999;48.808;9.182;2023-12-20T10:45:29;5.00;;;1.30;;
146;SDS011;45999;48.808;9.182;2023-12-20T10:47:56;3.20;;;1.27;;
146;SDS011;45999;48.808;9.182;2023-12-20T10:50:24;3.27;;;1.30;;
146;SDS011;45999;48.808;9.182;2023-12-20T10:52:52;7.87;;;1.40;;
146;SDS011;45999;48.808;9.182;2023-12-20T10:55:21;5.00;;;1.57;;
146;SDS011;45999;48.808;9.182;2023-12-20T10:57:49;7.20;;;1.50;;
146;SDS011;45999;48.808;9.182;2023-12-20T11:00:19;2.77;;;1.17;;
146;SDS011;45999;48.808;9.182;2023-12-20T11:02:48;2.77;;;1.00;;
146;SDS011;45999;48.808;9.182;2023-12-20T11:07:52;5.37;;;1.30;;
146;SDS011;45999;48.808;9.182;2023-12-20T11:13:30;3.63;;;1.67;;
146;SDS011;45999;48.808;9.182;2023-12-20T11:16:00;3.20;;;1.10;;
146;SDS011;45999;48.808;9.182;2023-12-20T11:18:28;4.17;;;1.20;;
146;SDS011;45999;48.808;9.182;2023-12-20T11:20:55;3.43;;;1.27;;
146;SDS011;45999;48.808;9.182;2023-12-20T11:23:29;5.13;;;1.50;;
146;SDS011;45999;48.808;9.182;2023-12-20T11:25:56;6.43;;;1.60;;
146;SDS011;45999;48.808;9.182;2023-12-20T11:28:24;4.67;;;1.50;;
146;SDS011;45999;48.808;9.182;2023-12-20T11:30:54;4.10;;;1.40;;
146;SDS011;45999;48.808;9.182;2023-12-20T11:33:45;5.10;;;1.30;;
146;SDS011;45999;48.808;9.182;2023-12-20T11:36:18;2.90;;;1.20;;
146;SDS011;45999;48.808;9.182;2023-12-20T11:38:57;3.20;;;1.07;;
146;SDS011;45999;48.808;9.182;2023-12-20T11:41:25;3.13;;;1.20;;
146;SDS011;45999;48.808;9.182;2023-12-20T11:43:55;5.03;;;1.37;;
146;SDS011;45999;48.808;9.182;2023-12-20T11:46:22;3.17;;;1.10;;
146;SDS011;45999;48.808;9.182;2023-12-20T11:48:48;5.23;;;1.40;;
146;SDS011;45999;48.808;9.182;2023-12-20T11:51:15;5.40;;;1.30;;
146;SDS011;45999;48.808;9.182;2023-12-20T11:53:41;4.23;;;1.37;;
146;SDS011;45999;48.808;9.182;2023-12-20T11:56:08;3.57;;;1.17;;
146;SDS011;45999;48.808;9.182;2023-12-20T11:58:36;6.90;;;1.33;;
146;SDS011;45999;48.808;9.182;2023-12-20T12:01:02;3.27;;;1.30;;
146;SDS011;45999;48.808;9.182;2023-12-20T12:03:29;3.77;;;1.37;;
146;SDS011;45999;48.808;9.182;2023-12-20T12:05:56;5.67;;;1.67;;
146;SDS011;45999;48.808;9.182;2023-12-20T12:08:23;3.87;;;1.60;;
146;SDS011;45999;48.808;9.182;2023-12-20T12:10:49;5.47;;;1.40;;
146;SDS011;45999;48.808;9.182;2023-12-20T12:13:16;5.33;;;1.67;;
146;SDS011;45999;48.808;9.182;2023-12-20T12:15:42;4.07;;;1.30;;
146;SDS011;45999;48.808;9.182;2023-12-20T12:18:09;2.67;;;1.10;;
146;SDS011;45999;48.808;9.182;2023-12-20T12:20:36;4.70;;;1.33;;
146;SDS011;45999;48.808;9.182;2023-12-20T12:23:03;5.77;;;1.30;;
146;SDS011;45999;48.808;9.182;2023-12-20T12:25:31;3.43;;;1.27;;
146;SDS011;45999;48.808;9.182;2023-12-20T12:27:59;1.70;;;0.93;;
146;SDS011;45999;48.808;9.182;2023-12-20T12:30:25;3.63;;;1.17;;
146;SDS011;45999;48.808;9.182;2023-12-20T12:32:52;4.73;;;1.83;;
146;SDS011;45999;48.808;9.182;2023-12-20T12:35:19;6.23;;;1.47;;
146;SDS011;45999;48.808;9.182;2023-12-20T12:37:46;5.73;;;1.20;;
146;SDS011;45999;48.808;9.182;2023-12-20T12:40:13;2.77;;;1.10;;
146;SDS011;45999;48.808;9.182;2023-12-20T12:42:41;5.70;;;1.50;;
146;SDS011;45999;48.808;9.182;2023-12-20T12:45:08;2.87;;;1.20;;
146;SDS011;45999;48.808;9.182;2023-12-20T12:47:36;4.10;;;1.47;;
146;SDS011;45999;48.808;9.182;2023-12-20T12:50:03;5.07;;;1.23;;
146;SDS011;45999;48.808;9.182;2023-12-20T12:52:30;2.30;;;1.20;;
146;SDS011;45999;48.808;9.182;2023-12-20T12:54:57;1.90;;;1.10;;
146;SDS011;45999;48.808;9.182;2023-12-20T12:57:23;3.50;;;1.23;;
146;SDS011;45999;48.808;9.182;2023-12-20T12:59:50;6.13;;;1.87;;
146;SDS011;45999;48.808;9.182;2023-12-20T13:02:16;4.33;;;1.40;;
146;SDS011;45999;48.808;9.182;2023-12-20T13:04:43;3.20;;;1.50;;
146;SDS011;45999;48.808;9.182;2023-12-20T13:07:09;3.20;;;1.37;;
146;SDS011;45999;48.808;9.182;2023-12-20T13:09:36;2.33;;;1.17;;
146;SDS011;45999;48.808;9.182;2023-12-20T13:12:03;4.53;;;1.27;;
146;SDS011;45999;48.808;9.182;2023-12-20T13:14:32;5.27;;;1.30;;
146;SDS011;45999;48.808;9.182;2023-12-20T13:17:03;4.53;;;1.20;;
146;SDS011;45999;48.808;9.182;2023-12-20T13:19:29;5.73;;;1.30;;
146;SDS011;45999;48.808;9.182;2023-12-20T13:21:56;4.03;;;1.50;;
146;SDS011;45999;48.808;9.182;2023-12-20T13:24:23;3.43;;;1.10;;
146;SDS011;45999;48.808;9.182;2023-12-20T13:26:49;4.13;;;1.10;;
146;SDS011;45999;48.808;9.182;2023-12-20T13:29:15;3.00;;;1.10;;
146;SDS011;45999;48.808;9.182;2023-12-20T13:31:42;6.97;;;1.40;;
146;SDS011;45999;48.808;9.182;2023-12-20T13:34:07;2.90;;;0.90;;
146;SDS011;45999;48.808;9.182;2023-12-20T13:36:34;2.40;;;0.70;;
146;SDS011;45999;48.808;9.182;2023-12-20T13:39:01;2.00;;;0.93;;
146;SDS011;45999;48.808;9.182;2023-12-20T13:41:29;5.47;;;1.47;;
146;SDS011;45999;48.808;9.182;2023-12-20T13:43:55;3.03;;;0.93;;
146;SDS011;45999;48.808;9.182;2023-12-20T13:46:21;3.30;;;1.30;;
146;SDS011;45999;48.808;9.182;2023-12-20T13:48:49;2.17;;;1.07;;
146;SDS011;45999;48.808;9.182;2023-12-20T13:51:15;3.33;;;1.30;;
146;SDS011;45999;48.808;9.182;2023-12-20T13:53:41;4.70;;;1.93;;
146;SDS011;45999;48.808;9.182;2023-12-20T13:56:08;3.80;;;1.20;;
146;SDS011;45999;48.808;9.182;2023-12-20T13:58:34;5.23;;;1.10;;
146;SDS011;45999;48.808;9.182;2023-12-20T14:01:00;2.40;;;1.17;;
146;SDS011;45999;48.808;9.182;2023-12-20T14:03:27;2.73;;;1.20;;
146;SDS011;45999;48.808;9.182;2023-12-20T14:05:53;3.77;;;1.10;;
146;SDS011;45999;48.808;9.182;2023-12-20T14:08:19;4.13;;;1.30;;
146;SDS011;45999;48.808;9.182;2023-12-20T14:10:46;2.70;;;1.40;;
146;SDS011;45999;48.808;9.182;2023-12-20T14:13:12;4.83;;;1.10;;
146;SDS011;45999;48.808;9.182;2023-12-20T14:15:38;5.17;;;1.40;;
146;SDS011;45999;48.808;9.182;2023-12-20T14:18:05;3.47;;;1.30;;
146;SDS011;45999;48.808;9.182;2023-12-20T14:20:33;6.43;;;1.47;;
146;SDS011;45999;48.808;9.182;2023-12-20T14:23:00;3.10;;;1.30;;
146;SDS011;45999;48.808;9.182;2023-12-20T14:25:27;3.40;;;1.13;;
146;SDS011;45999;48.808;9.182;2023-12-20T14:27:53;5.53;;;1.53;;
146;SDS011;45999;48.808;9.182;2023-12-20T14:30:20;4.20;;;0.97;;
146;SDS011;45999;48.808;9.182;2023-12-20T14:32:46;6.30;;;1.40;;
146;SDS011;45999;48.808;9.182;2023-12-20T14:35:13;2.33;;;1.30;;
146;SDS011;45999;48.808;9.182;2023-12-20T14:37:40;3.40;;;1.30;;
146;SDS011;45999;48.808;9.182;2023-12-20T14:40:07;3.77;;;1.10;;
146;SDS011;45999;48.808;9.182;2023-12-20T14:42:39;3.77;;;1.20;;
146;SDS011;45999;48.808;9.182;2023-12-20T14:45:06;7.17;;;1.20;;
146;SDS011;45999;48.808;9.182;2023-12-20T14:47:33;3.07;;;1.13;;
146;SDS011;45999;48.808;9.182;2023-12-20T14:50:00;4.17;;;1.20;;
146;SDS011;45999;48.808;9.182;2023-12-20T14:52:28;4.43;;;1.20;;
146;SDS011;45999;48.808;9.182;2023-12-20T14:54:54;2.93;;;1.23;;
146;SDS011;45999;48.808;9.182;2023-12-20T14:57:20;4.67;;;1.17;;
146;SDS011;45999;48.808;9.182;2023-12-20T14:59:47;5.00;;;1.20;;
146;SDS011;45999;48.808;9.182;2023-12-20T15:02:13;3.23;;;1.23;;
146;SDS011;45999;48.808;9.182;2023-12-20T15:04:40;4.27;;;1.20;;
146;SDS011;45999;48.808;9.182;2023-12-20T15:07:07;2.27;;;1.10;;
146;SDS011;45999;48.808;9.182;2023-12-20T15:09:33;2.50;;;0.90;;
146;SDS011;45999;48.808;9.182;2023-12-20T15:11:59;2.80;;;1.10;;
146;SDS011;45999;48.808;9.182;2023-12-20T15:14:26;4.60;;;1.20;;
146;SDS011;45999;48.808;9.182;2023-12-20T15:16:53;3.67;;;1.00;;
146;SDS011;45999;48.808;9.182;2023-12-20T15:19:20;2.67;;;1.20;;